sensor_id;sensor_type;location;lat;lon;timestamp;temperature;humidity
13606;DHT22;6874;52.084;5.090;2022-09-12T00:01:09;16.50;92.80
13606;DHT22;6874;52.084;5.090;2022-09-12T00:03:36;16.40;92.70
13606;DHT22;6874;52.084;5.090;2022-09-12T00:06:40;16.50;92.80
13606;DHT22;6874;52.084;5.090;2022-09-12T00:09:02;16.40;92.70
13606;DHT22;6874;52.084;5.090;2022-09-12T00:11:28;16.40;92.70
13606;DHT22;6874;52.084;5.090;2022-09-12T00:13:58;16.40;92.60
13606;DHT22;6874;52.084;5.090;2022-09-12T00:16:27;16.40;92.60
13606;DHT22;6874;52.084;5.090;2022-09-12T00:18:53;16.30;92.60
13606;DHT22;6874;52.084;5.090;2022-09-12T00:21:20;16.30;92.60
13606;DHT22;6874;52.084;5.090;2022-09-12T00:23:45;16.30;92.70
13606;DHT22;6874;52.084;5.090;2022-09-12T00:26:12;16.30;92.60
13606;DHT22;6874;52.084;5.090;2022-09-12T00:28:38;16.30;92.70
13606;DHT22;6874;52.084;5.090;2022-09-12T00:31:07;16.30;92.60
13606;DHT22;6874;52.084;5.090;2022-09-12T00:33:33;16.20;92.60
13606;DHT22;6874;52.084;5.090;2022-09-12T00:35:59;16.30;92.70
13606;DHT22;6874;52.084;5.090;2022-09-12T00:38:28;16.20;92.60
13606;DHT22;6874;52.084;5.090;2022-09-12T00:40:53;16.20;92.60
13606;DHT22;6874;52.084;5.090;2022-09-12T00:43:44;16.20;92.60
13606;DHT22;6874;52.084;5.090;2022-09-12T00:46:42;16.20;92.50
13606;DHT22;6874;52.084;5.090;2022-09-12T00:52:07;16.10;92.50
13606;DHT22;6874;52.084;5.090;2022-09-12T00:55:07;16.10;92.40
13606;DHT22;6874;52.084;5.090;2022-09-12T00:57:39;16.10;92.40
13606;DHT22;6874;52.084;5.090;2022-09-12T01:00:11;16.10;92.60
13606;DHT22;6874;52.084;5.090;2022-09-12T01:02:42;16.00;92.50
13606;DHT22;6874;52.084;5.090;2022-09-12T01:05:08;16.00;92.50
13606;DHT22;6874;52.084;5.090;2022-09-12T01:07:36;16.00;92.30
13606;DHT22;6874;52.084;5.090;2022-09-12T01:10:03;16.00;92.30
13606;DHT22;6874;52.084;5.090;2022-09-12T01:12:31;16.00;92.40
13606;DHT22;6874;52.084;5.090;2022-09-12T01:14:57;16.00;92.50
13606;DHT22;6874;52.084;5.090;2022-09-12T01:17:30;15.90;92.80
13606;DHT22;6874;52.084;5.090;2022-09-12T01:23:27;15.90;92.50
13606;DHT22;6874;52.084;5.090;2022-09-12T01:26:06;15.90;92.40
13606;DHT22;6874;52.084;5.090;2022-09-12T01:31:33;15.80;92.40
13606;DHT22;6874;52.084;5.090;2022-09-12T01:34:08;15.80;92.30
13606;DHT22;6874;52.084;5.090;2022-09-12T01:36:45;15.80;92.30
13606;DHT22;6874;52.084;5.090;2022-09-12T01:39:19;15.80;92.30
13606;DHT22;6874;52.084;5.090;2022-09-12T01:41:58;15.80;92.40
13606;DHT22;6874;52.084;5.090;2022-09-12T01:44:44;15.70;92.30
13606;DHT22;6874;52.084;5.090;2022-09-12T01:47:15;15.70;92.30
13606;DHT22;6874;52.084;5.090;2022-09-12T01:55:16;15.70;92.40
13606;DHT22;6874;52.084;5.090;2022-09-12T01:58:05;15.70;92.40
13606;DHT22;6874;52.084;5.090;2022-09-12T02:00:36;15.70;92.40
13606;DHT22;6874;52.084;5.090;2022-09-12T02:03:10;15.60;92.30
13606;DHT22;6874;52.084;5.090;2022-09-12T02:05:42;15.60;92.40
13606;DHT22;6874;52.084;5.090;2022-09-12T02:08:12;15.60;92.30
13606;DHT22;6874;52.084;5.090;2022-09-12T02:10:49;15.60;92.30
13606;DHT22;6874;52.084;5.090;2022-09-12T02:13:20;15.60;92.30
13606;DHT22;6874;52.084;5.090;2022-09-12T02:15:52;15.60;92.30
13606;DHT22;6874;52.084;5.090;2022-09-12T02:18:20;15.60;92.30
13606;DHT22;6874;52.084;5.090;2022-09-12T02:20:47;15.50;92.30
13606;DHT22;6874;52.084;5.090;2022-09-12T02:23:17;15.50;92.40
13606;DHT22;6874;52.084;5.090;2022-09-12T02:25:47;15.50;92.40
13606;DHT22;6874;52.084;5.090;2022-09-12T02:28:24;15.50;92.30
13606;DHT22;6874;52.084;5.090;2022-09-12T02:39:44;15.40;92.20
13606;DHT22;6874;52.084;5.090;2022-09-12T02:42:10;15.40;92.30
13606;DHT22;6874;52.084;5.090;2022-09-12T02:44:36;15.40;92.40
13606;DHT22;6874;52.084;5.090;2022-09-12T02:47:11;15.40;92.40
13606;DHT22;6874;52.084;5.090;2022-09-12T02:49:39;15.40;92.30
13606;DHT22;6874;52.084;5.090;2022-09-12T02:52:04;15.30;92.30
13606;DHT22;6874;52.084;5.090;2022-09-12T02:54:31;15.30;92.50
13606;DHT22;6874;52.084;5.090;2022-09-12T02:56:56;15.30;92.30
13606;DHT22;6874;52.084;5.090;2022-09-12T02:59:23;15.30;92.30
13606;DHT22;6874;52.084;5.090;2022-09-12T03:04:52;15.30;92.30
13606;DHT22;6874;52.084;5.090;2022-09-12T03:23:32;15.20;92.30
13606;DHT22;6874;52.084;5.090;2022-09-12T03:26:21;15.20;92.50
13606;DHT22;6874;52.084;5.090;2022-09-12T03:28:51;15.10;92.40
13606;DHT22;6874;52.084;5.090;2022-09-12T03:31:18;15.10;92.20
13606;DHT22;6874;52.084;5.090;2022-09-12T03:33:44;15.10;92.30
13606;DHT22;6874;52.084;5.090;2022-09-12T03:36:21;15.10;92.20
13606;DHT22;6874;52.084;5.090;2022-09-12T03:38:48;15.10;92.40
13606;DHT22;6874;52.084;5.090;2022-09-12T03:41:14;15.10;92.30
13606;DHT22;6874;52.084;5.090;2022-09-12T03:43:39;15.10;92.30
13606;DHT22;6874;52.084;5.090;2022-09-12T03:46:05;15.10;92.30
13606;DHT22;6874;52.084;5.090;2022-09-12T03:48:30;15.10;92.50
13606;DHT22;6874;52.084;5.090;2022-09-12T03:51:06;15.10;92.40
13606;DHT22;6874;52.084;5.090;2022-09-12T03:53:32;15.10;92.40
13606;DHT22;6874;52.084;5.090;2022-09-12T03:55:58;15.10;92.40
13606;DHT22;6874;52.084;5.090;2022-09-12T03:58:28;15.10;92.40
13606;DHT22;6874;52.084;5.090;2022-09-12T04:00:53;15.00;92.40
13606;DHT22;6874;52.084;5.090;2022-09-12T04:03:19;15.10;92.40
13606;DHT22;6874;52.084;5.090;2022-09-12T04:05:45;15.00;92.40
13606;DHT22;6874;52.084;5.090;2022-09-12T04:08:12;15.00;92.30
13606;DHT22;6874;52.084;5.090;2022-09-12T04:10:37;15.00;92.50
13606;DHT22;6874;52.084;5.090;2022-09-12T04:13:03;15.00;92.40
13606;DHT22;6874;52.084;5.090;2022-09-12T04:15:28;15.00;92.40
13606;DHT22;6874;52.084;5.090;2022-09-12T04:17:54;15.00;92.50
13606;DHT22;6874;52.084;5.090;2022-09-12T04:20:19;15.00;92.40
13606;DHT22;6874;52.084;5.090;2022-09-12T04:22:45;15.00;92.40
13606;DHT22;6874;52.084;5.090;2022-09-12T04:25:10;14.90;92.40
13606;DHT22;6874;52.084;5.090;2022-09-12T04:27:37;15.00;92.50
13606;DHT22;6874;52.084;5.090;2022-09-12T04:30:03;15.00;92.40
13606;DHT22;6874;52.084;5.090;2022-09-12T04:32:29;14.90;92.40
13606;DHT22;6874;52.084;5.090;2022-09-12T04:34:55;15.00;92.40
13606;DHT22;6874;52.084;5.090;2022-09-12T04:37:21;14.90;92.50
13606;DHT22;6874;52.084;5.090;2022-09-12T04:39:48;14.90;92.40
13606;DHT22;6874;52.084;5.090;2022-09-12T04:42:14;14.90;92.40
13606;DHT22;6874;52.084;5.090;2022-09-12T04:44:40;14.90;92.40
13606;DHT22;6874;52.084;5.090;2022-09-12T04:47:05;15.00;92.50
13606;DHT22;6874;52.084;5.090;2022-09-12T04:49:31;14.90;92.50
13606;DHT22;6874;52.084;5.090;2022-09-12T04:51:56;14.90;92.60
13606;DHT22;6874;52.084;5.090;2022-09-12T04:54:22;14.90;92.60
13606;DHT22;6874;52.084;5.090;2022-09-12T04:56:49;14.90;92.40
13606;DHT22;6874;52.084;5.090;2022-09-12T04:59:16;14.90;92.50
13606;DHT22;6874;52.084;5.090;2022-09-12T05:01:42;14.90;92.40
13606;DHT22;6874;52.084;5.090;2022-09-12T05:04:12;14.90;92.50
13606;DHT22;6874;52.084;5.090;2022-09-12T05:06:38;14.90;92.50
13606;DHT22;6874;52.084;5.090;2022-09-12T05:09:06;14.90;92.60
13606;DHT22;6874;52.084;5.090;2022-09-12T05:11:35;14.90;92.50
13606;DHT22;6874;52.084;5.090;2022-09-12T05:14:02;14.90;92.50
13606;DHT22;6874;52.084;5.090;2022-09-12T05:16:28;14.90;92.60
13606;DHT22;6874;52.084;5.090;2022-09-12T05:18:55;14.90;92.50
13606;DHT22;6874;52.084;5.090;2022-09-12T05:21:21;14.90;92.50
13606;DHT22;6874;52.084;5.090;2022-09-12T05:23:53;14.80;92.40
13606;DHT22;6874;52.084;5.090;2022-09-12T05:26:20;14.80;92.40
13606;DHT22;6874;52.084;5.090;2022-09-12T05:28:47;14.80;92.40
13606;DHT22;6874;52.084;5.090;2022-09-12T05:31:19;14.80;92.40
13606;DHT22;6874;52.084;5.090;2022-09-12T05:33:48;14.80;92.50
13606;DHT22;6874;52.084;5.090;2022-09-12T05:36:19;14.80;92.40
13606;DHT22;6874;52.084;5.090;2022-09-12T05:38:45;14.80;92.40
13606;DHT22;6874;52.084;5.090;2022-09-12T05:41:20;14.80;92.50
13606;DHT22;6874;52.084;5.090;2022-09-12T05:43:46;14.80;92.30
13606;DHT22;6874;52.084;5.090;2022-09-12T05:46:15;14.80;92.40
13606;DHT22;6874;52.084;5.090;2022-09-12T05:48:42;14.80;92.40
13606;DHT22;6874;52.084;5.090;2022-09-12T05:51:16;14.80;92.40
13606;DHT22;6874;52.084;5.090;2022-09-12T05:53:44;14.80;92.40
13606;DHT22;6874;52.084;5.090;2022-09-12T05:56:12;14.80;92.40
13606;DHT22;6874;52.084;5.090;2022-09-12T05:58:41;14.80;92.40
13606;DHT22;6874;52.084;5.090;2022-09-12T06:01:09;14.80;92.30
13606;DHT22;6874;52.084;5.090;2022-09-12T06:03:40;14.80;92.40
13606;DHT22;6874;52.084;5.090;2022-09-12T06:06:06;14.80;92.40
13606;DHT22;6874;52.084;5.090;2022-09-12T06:08:33;14.70;92.50
13606;DHT22;6874;52.084;5.090;2022-09-12T06:11:04;14.70;92.50
13606;DHT22;6874;52.084;5.090;2022-09-12T06:13:31;14.80;92.50
13606;DHT22;6874;52.084;5.090;2022-09-12T06:16:08;14.70;92.40
13606;DHT22;6874;52.084;5.090;2022-09-12T06:18:35;14.70;92.40
13606;DHT22;6874;52.084;5.090;2022-09-12T06:21:02;14.70;92.30
13606;DHT22;6874;52.084;5.090;2022-09-12T06:23:28;14.70;92.30
13606;DHT22;6874;52.084;5.090;2022-09-12T06:25:54;14.70;92.50
13606;DHT22;6874;52.084;5.090;2022-09-12T06:28:20;14.70;92.40
13606;DHT22;6874;52.084;5.090;2022-09-12T06:30:45;14.70;92.30
13606;DHT22;6874;52.084;5.090;2022-09-12T06:33:11;14.70;92.40
13606;DHT22;6874;52.084;5.090;2022-09-12T06:35:37;14.70;92.40
13606;DHT22;6874;52.084;5.090;2022-09-12T06:38:03;14.70;92.40
13606;DHT22;6874;52.084;5.090;2022-09-12T06:40:29;14.70;92.40
13606;DHT22;6874;52.084;5.090;2022-09-12T06:42:55;14.60;92.40
13606;DHT22;6874;52.084;5.090;2022-09-12T06:45:20;14.70;92.40
13606;DHT22;6874;52.084;5.090;2022-09-12T06:47:47;14.70;92.40
13606;DHT22;6874;52.084;5.090;2022-09-12T06:50:12;14.70;92.50
13606;DHT22;6874;52.084;5.090;2022-09-12T06:52:38;14.70;93.10
13606;DHT22;6874;52.084;5.090;2022-09-12T06:55:04;14.70;92.80
13606;DHT22;6874;52.084;5.090;2022-09-12T06:57:30;14.70;92.70
13606;DHT22;6874;52.084;5.090;2022-09-12T07:00:02;14.60;92.80
13606;DHT22;6874;52.084;5.090;2022-09-12T07:02:28;14.70;92.80
13606;DHT22;6874;52.084;5.090;2022-09-12T07:04:54;14.70;92.70
13606;DHT22;6874;52.084;5.090;2022-09-12T07:07:19;14.70;92.80
13606;DHT22;6874;52.084;5.090;2022-09-12T07:09:45;14.80;92.80
13606;DHT22;6874;52.084;5.090;2022-09-12T07:12:10;14.70;92.80
13606;DHT22;6874;52.084;5.090;2022-09-12T07:14:36;14.80;92.90
13606;DHT22;6874;52.084;5.090;2022-09-12T07:17:02;14.90;92.90
13606;DHT22;6874;52.084;5.090;2022-09-12T07:19:27;14.70;92.90
13606;DHT22;6874;52.084;5.090;2022-09-12T07:21:53;14.70;92.90
13606;DHT22;6874;52.084;5.090;2022-09-12T07:24:19;14.80;92.90
13606;DHT22;6874;52.084;5.090;2022-09-12T07:26:44;14.80;93.10
13606;DHT22;6874;52.084;5.090;2022-09-12T07:29:15;14.80;93.10
13606;DHT22;6874;52.084;5.090;2022-09-12T07:31:41;14.80;93.10
13606;DHT22;6874;52.084;5.090;2022-09-12T07:34:07;14.80;93.10
13606;DHT22;6874;52.084;5.090;2022-09-12T07:36:33;14.80;93.10
13606;DHT22;6874;52.084;5.090;2022-09-12T07:38:59;14.90;93.20
13606;DHT22;6874;52.084;5.090;2022-09-12T07:41:28;14.90;93.20
13606;DHT22;6874;52.084;5.090;2022-09-12T07:43:56;14.90;93.30
13606;DHT22;6874;52.084;5.090;2022-09-12T07:46:23;14.90;93.20
13606;DHT22;6874;52.084;5.090;2022-09-12T07:48:53;14.90;93.30
13606;DHT22;6874;52.084;5.090;2022-09-12T07:51:20;15.00;93.30
13606;DHT22;6874;52.084;5.090;2022-09-12T07:53:46;15.00;93.40
13606;DHT22;6874;52.084;5.090;2022-09-12T07:56:12;15.00;93.40
13606;DHT22;6874;52.084;5.090;2022-09-12T07:58:39;15.00;93.60
13606;DHT22;6874;52.084;5.090;2022-09-12T08:01:10;15.10;93.70
13606;DHT22;6874;52.084;5.090;2022-09-12T08:03:41;15.10;93.80
13606;DHT22;6874;52.084;5.090;2022-09-12T08:06:09;15.10;93.90
13606;DHT22;6874;52.084;5.090;2022-09-12T08:08:36;15.10;94.00
13606;DHT22;6874;52.084;5.090;2022-09-12T08:11:05;15.10;94.00
13606;DHT22;6874;52.084;5.090;2022-09-12T08:13:32;15.20;94.40
13606;DHT22;6874;52.084;5.090;2022-09-12T08:15:59;15.20;94.10
13606;DHT22;6874;52.084;5.090;2022-09-12T08:18:29;15.20;94.10
13606;DHT22;6874;52.084;5.090;2022-09-12T08:21:00;15.20;94.20
13606;DHT22;6874;52.084;5.090;2022-09-12T08:23:26;15.30;94.20
13606;DHT22;6874;52.084;5.090;2022-09-12T08:25:57;15.30;94.10
13606;DHT22;6874;52.084;5.090;2022-09-12T08:28:26;15.40;94.20
13606;DHT22;6874;52.084;5.090;2022-09-12T08:30:53;15.40;94.20
13606;DHT22;6874;52.084;5.090;2022-09-12T08:33:19;15.50;94.30
13606;DHT22;6874;52.084;5.090;2022-09-12T08:35:45;15.50;94.40
13606;DHT22;6874;52.084;5.090;2022-09-12T08:38:11;15.50;94.50
13606;DHT22;6874;52.084;5.090;2022-09-12T08:40:46;15.60;94.50
13606;DHT22;6874;52.084;5.090;2022-09-12T08:43:42;15.60;94.50
13606;DHT22;6874;52.084;5.090;2022-09-12T08:46:56;15.70;94.60
13606;DHT22;6874;52.084;5.090;2022-09-12T08:49:38;15.70;94.70
13606;DHT22;6874;52.084;5.090;2022-09-12T08:52:28;15.70;94.80
13606;DHT22;6874;52.084;5.090;2022-09-12T08:54:54;15.80;94.80
13606;DHT22;6874;52.084;5.090;2022-09-12T08:57:21;15.80;94.80
13606;DHT22;6874;52.084;5.090;2022-09-12T08:59:48;15.90;94.90
13606;DHT22;6874;52.084;5.090;2022-09-12T09:04:50;16.00;95.00
13606;DHT22;6874;52.084;5.090;2022-09-12T09:10:14;16.10;95.00
13606;DHT22;6874;52.084;5.090;2022-09-12T09:12:58;16.00;95.10
13606;DHT22;6874;52.084;5.090;2022-09-12T09:21:17;16.20;95.50
13606;DHT22;6874;52.084;5.090;2022-09-12T09:23:39;16.30;95.70
13606;DHT22;6874;52.084;5.090;2022-09-12T09:26:12;16.40;95.70
13606;DHT22;6874;52.084;5.090;2022-09-12T09:31:18;16.40;95.70
13606;DHT22;6874;52.084;5.090;2022-09-12T09:33:47;16.50;95.80
13606;DHT22;6874;52.084;5.090;2022-09-12T09:36:20;16.60;95.90
13606;DHT22;6874;52.084;5.090;2022-09-12T09:38:56;16.60;95.90
13606;DHT22;6874;52.084;5.090;2022-09-12T09:43:56;16.70;96.00
13606;DHT22;6874;52.084;5.090;2022-09-12T09:46:23;16.80;96.00
13606;DHT22;6874;52.084;5.090;2022-09-12T09:48:50;16.80;96.00
13606;DHT22;6874;52.084;5.090;2022-09-12T09:51:23;16.90;96.10
13606;DHT22;6874;52.084;5.090;2022-09-12T09:53:57;16.90;96.30
13606;DHT22;6874;52.084;5.090;2022-09-12T09:56:34;17.00;96.30
13606;DHT22;6874;52.084;5.090;2022-09-12T09:59:15;17.10;96.50
13606;DHT22;6874;52.084;5.090;2022-09-12T10:01:50;17.20;96.60
13606;DHT22;6874;52.084;5.090;2022-09-12T10:04:32;17.30;97.10
13606;DHT22;6874;52.084;5.090;2022-09-12T10:07:02;17.40;97.00
13606;DHT22;6874;52.084;5.090;2022-09-12T10:09:31;17.50;97.10
13606;DHT22;6874;52.084;5.090;2022-09-12T10:11:58;17.60;97.20
13606;DHT22;6874;52.084;5.090;2022-09-12T10:14:32;17.80;97.40
13606;DHT22;6874;52.084;5.090;2022-09-12T10:17:00;17.90;97.20
13606;DHT22;6874;52.084;5.090;2022-09-12T10:19:37;18.00;97.10
13606;DHT22;6874;52.084;5.090;2022-09-12T10:22:04;18.20;97.20
13606;DHT22;6874;52.084;5.090;2022-09-12T10:27:08;18.40;97.00
13606;DHT22;6874;52.084;5.090;2022-09-12T10:29:42;18.60;97.10
13606;DHT22;6874;52.084;5.090;2022-09-12T10:32:20;18.60;97.00
13606;DHT22;6874;52.084;5.090;2022-09-12T10:34:47;18.80;97.00
13606;DHT22;6874;52.084;5.090;2022-09-12T10:37:22;18.90;97.10
13606;DHT22;6874;52.084;5.090;2022-09-12T10:39:53;19.00;97.10
13606;DHT22;6874;52.084;5.090;2022-09-12T10:42:52;19.10;97.00
13606;DHT22;6874;52.084;5.090;2022-09-12T10:45:35;19.20;97.10
13606;DHT22;6874;52.084;5.090;2022-09-12T10:48:20;19.30;97.40
13606;DHT22;6874;52.084;5.090;2022-09-12T10:50:47;19.40;97.30
13606;DHT22;6874;52.084;5.090;2022-09-12T10:53:42;19.50;97.50
13606;DHT22;6874;52.084;5.090;2022-09-12T10:56:12;19.60;97.50
13606;DHT22;6874;52.084;5.090;2022-09-12T11:09:41;20.30;97.60
13606;DHT22;6874;52.084;5.090;2022-09-12T11:12:35;20.40;97.20
13606;DHT22;6874;52.084;5.090;2022-09-12T11:17:59;20.60;96.90
13606;DHT22;6874;52.084;5.090;2022-09-12T11:20:50;20.60;96.70
13606;DHT22;6874;52.084;5.090;2022-09-12T11:23:50;20.70;96.80
13606;DHT22;6874;52.084;5.090;2022-09-12T11:34:54;21.10;96.50
13606;DHT22;6874;52.084;5.090;2022-09-12T11:40:36;21.30;96.20
13606;DHT22;6874;52.084;5.090;2022-09-12T11:45:45;21.40;95.90
13606;DHT22;6874;52.084;5.090;2022-09-12T11:50:45;21.60;95.90
13606;DHT22;6874;52.084;5.090;2022-09-12T11:53:16;21.60;95.80
13606;DHT22;6874;52.084;5.090;2022-09-12T11:55:54;21.70;95.70
13606;DHT22;6874;52.084;5.090;2022-09-12T11:58:24;21.80;95.80
13606;DHT22;6874;52.084;5.090;2022-09-12T12:00:54;21.80;95.60
13606;DHT22;6874;52.084;5.090;2022-09-12T12:03:45;21.90;95.50
13606;DHT22;6874;52.084;5.090;2022-09-12T12:08:41;22.00;95.50
13606;DHT22;6874;52.084;5.090;2022-09-12T12:11:08;22.00;95.40
13606;DHT22;6874;52.084;5.090;2022-09-12T12:13:58;22.10;95.50
13606;DHT22;6874;52.084;5.090;2022-09-12T12:16:33;22.10;95.50
13606;DHT22;6874;52.084;5.090;2022-09-12T12:19:02;22.20;95.50
13606;DHT22;6874;52.084;5.090;2022-09-12T12:34:42;22.50;95.80
13606;DHT22;6874;52.084;5.090;2022-09-12T12:50:26;22.90;96.50
13606;DHT22;6874;52.084;5.090;2022-09-12T12:52:56;22.90;96.60
13606;DHT22;6874;52.084;5.090;2022-09-12T12:55:37;22.90;96.60
13606;DHT22;6874;52.084;5.090;2022-09-12T12:58:43;23.00;96.70
13606;DHT22;6874;52.084;5.090;2022-09-12T13:03:58;23.10;96.70
13606;DHT22;6874;52.084;5.090;2022-09-12T13:06:36;23.20;96.50
13606;DHT22;6874;52.084;5.090;2022-09-12T13:11:44;23.30;96.80
13606;DHT22;6874;52.084;5.090;2022-09-12T13:14:50;23.40;96.70
13606;DHT22;6874;52.084;5.090;2022-09-12T13:17:37;23.40;96.80
13606;DHT22;6874;52.084;5.090;2022-09-12T13:22:40;23.50;96.80
13606;DHT22;6874;52.084;5.090;2022-09-12T13:28:16;23.60;97.00
13606;DHT22;6874;52.084;5.090;2022-09-12T13:31:26;23.70;97.10
13606;DHT22;6874;52.084;5.090;2022-09-12T13:33:48;23.80;96.90
13606;DHT22;6874;52.084;5.090;2022-09-12T13:44:19;24.00;96.70
13606;DHT22;6874;52.084;5.090;2022-09-12T13:46:46;24.10;97.00
13606;DHT22;6874;52.084;5.090;2022-09-12T13:52:16;24.10;96.60
13606;DHT22;6874;52.084;5.090;2022-09-12T13:54:44;24.20;96.40
13606;DHT22;6874;52.084;5.090;2022-09-12T13:57:35;24.20;96.10
13606;DHT22;6874;52.084;5.090;2022-09-12T14:00:17;24.20;96.20
13606;DHT22;6874;52.084;5.090;2022-09-12T14:02:44;24.30;96.30
13606;DHT22;6874;52.084;5.090;2022-09-12T14:05:16;24.30;96.00
13606;DHT22;6874;52.084;5.090;2022-09-12T14:07:58;24.40;96.10
13606;DHT22;6874;52.084;5.090;2022-09-12T14:10:37;24.40;95.90
13606;DHT22;6874;52.084;5.090;2022-09-12T14:13:19;24.40;96.20
13606;DHT22;6874;52.084;5.090;2022-09-12T14:15:47;24.50;96.10
13606;DHT22;6874;52.084;5.090;2022-09-12T14:18:28;24.50;96.00
13606;DHT22;6874;52.084;5.090;2022-09-12T14:20:57;24.50;96.00
13606;DHT22;6874;52.084;5.090;2022-09-12T14:23:29;24.50;95.60
13606;DHT22;6874;52.084;5.090;2022-09-12T14:25:58;24.60;95.80
13606;DHT22;6874;52.084;5.090;2022-09-12T14:28:25;24.70;95.50
13606;DHT22;6874;52.084;5.090;2022-09-12T14:33:51;24.60;95.20
13606;DHT22;6874;52.084;5.090;2022-09-12T14:36:26;24.60;95.20
13606;DHT22;6874;52.084;5.090;2022-09-12T14:39:01;24.70;95.10
13606;DHT22;6874;52.084;5.090;2022-09-12T14:41:37;24.70;95.00
13606;DHT22;6874;52.084;5.090;2022-09-12T14:44:06;24.70;94.90
13606;DHT22;6874;52.084;5.090;2022-09-12T14:46:40;24.70;94.80
13606;DHT22;6874;52.084;5.090;2022-09-12T14:49:16;24.70;94.50
13606;DHT22;6874;52.084;5.090;2022-09-12T14:52:04;24.70;94.50
13606;DHT22;6874;52.084;5.090;2022-09-12T14:57:27;24.70;94.50
13606;DHT22;6874;52.084;5.090;2022-09-12T14:59:47;24.70;94.50
13606;DHT22;6874;52.084;5.090;2022-09-12T15:04:40;24.70;94.40
13606;DHT22;6874;52.084;5.090;2022-09-12T15:07:30;24.70;94.20
13606;DHT22;6874;52.084;5.090;2022-09-12T15:09:58;24.70;94.10
13606;DHT22;6874;52.084;5.090;2022-09-12T15:12:24;24.70;93.90
13606;DHT22;6874;52.084;5.090;2022-09-12T15:14:49;24.70;93.90
13606;DHT22;6874;52.084;5.090;2022-09-12T15:17:15;24.70;94.10
13606;DHT22;6874;52.084;5.090;2022-09-12T15:19:41;24.70;93.70
13606;DHT22;6874;52.084;5.090;2022-09-12T15:22:09;24.70;93.40
13606;DHT22;6874;52.084;5.090;2022-09-12T15:24:35;24.70;93.80
13606;DHT22;6874;52.084;5.090;2022-09-12T15:27:10;24.70;93.10
13606;DHT22;6874;52.084;5.090;2022-09-12T15:29:36;24.70;93.70
13606;DHT22;6874;52.084;5.090;2022-09-12T15:32:02;24.70;93.50
13606;DHT22;6874;52.084;5.090;2022-09-12T15:34:28;24.70;93.20
13606;DHT22;6874;52.084;5.090;2022-09-12T15:36:54;24.70;93.50
13606;DHT22;6874;52.084;5.090;2022-09-12T15:39:19;24.60;93.20
13606;DHT22;6874;52.084;5.090;2022-09-12T15:41:46;24.70;93.30
13606;DHT22;6874;52.084;5.090;2022-09-12T15:44:12;24.60;93.10
13606;DHT22;6874;52.084;5.090;2022-09-12T15:46:39;24.60;93.30
13606;DHT22;6874;52.084;5.090;2022-09-12T15:49:05;24.60;93.10
13606;DHT22;6874;52.084;5.090;2022-09-12T15:51:31;24.60;93.10
13606;DHT22;6874;52.084;5.090;2022-09-12T15:54:03;24.60;93.10
13606;DHT22;6874;52.084;5.090;2022-09-12T15:56:29;24.60;93.10
13606;DHT22;6874;52.084;5.090;2022-09-12T15:58:54;24.60;92.90
13606;DHT22;6874;52.084;5.090;2022-09-12T16:01:20;24.50;92.90
13606;DHT22;6874;52.084;5.090;2022-09-12T16:03:47;24.50;92.60
13606;DHT22;6874;52.084;5.090;2022-09-12T16:06:12;24.50;92.80
13606;DHT22;6874;52.084;5.090;2022-09-12T16:08:40;24.50;92.80
13606;DHT22;6874;52.084;5.090;2022-09-12T16:11:25;24.50;92.60
13606;DHT22;6874;52.084;5.090;2022-09-12T16:13:52;24.40;92.70
13606;DHT22;6874;52.084;5.090;2022-09-12T16:16:18;24.40;92.60
13606;DHT22;6874;52.084;5.090;2022-09-12T16:18:43;24.30;92.50
13606;DHT22;6874;52.084;5.090;2022-09-12T16:21:09;24.30;92.50
13606;DHT22;6874;52.084;5.090;2022-09-12T16:23:35;24.30;92.60
13606;DHT22;6874;52.084;5.090;2022-09-12T16:26:03;24.30;92.60
13606;DHT22;6874;52.084;5.090;2022-09-12T16:28:29;24.30;92.50
13606;DHT22;6874;52.084;5.090;2022-09-12T16:30:56;24.20;92.40
13606;DHT22;6874;52.084;5.090;2022-09-12T16:33:23;24.10;92.40
13606;DHT22;6874;52.084;5.090;2022-09-12T16:35:48;24.10;92.40
13606;DHT22;6874;52.084;5.090;2022-09-12T16:38:16;24.10;92.20
13606;DHT22;6874;52.084;5.090;2022-09-12T16:40:42;24.00;92.20
13606;DHT22;6874;52.084;5.090;2022-09-12T16:43:08;24.00;92.20
13606;DHT22;6874;52.084;5.090;2022-09-12T16:45:33;23.90;92.10
13606;DHT22;6874;52.084;5.090;2022-09-12T16:47:59;23.90;92.10
13606;DHT22;6874;52.084;5.090;2022-09-12T16:50:25;23.90;92.30
13606;DHT22;6874;52.084;5.090;2022-09-12T16:52:50;23.80;92.20
13606;DHT22;6874;52.084;5.090;2022-09-12T16:55:16;23.80;92.30
13606;DHT22;6874;52.084;5.090;2022-09-12T16:57:41;23.70;92.30
13606;DHT22;6874;52.084;5.090;2022-09-12T17:00:07;23.70;92.40
13606;DHT22;6874;52.084;5.090;2022-09-12T17:02:33;23.70;92.40
13606;DHT22;6874;52.084;5.090;2022-09-12T17:04:59;23.60;92.30
13606;DHT22;6874;52.084;5.090;2022-09-12T17:07:24;23.60;92.30
13606;DHT22;6874;52.084;5.090;2022-09-12T17:09:50;23.60;92.40
13606;DHT22;6874;52.084;5.090;2022-09-12T17:12:16;23.50;92.40
13606;DHT22;6874;52.084;5.090;2022-09-12T17:14:41;23.50;92.40
13606;DHT22;6874;52.084;5.090;2022-09-12T17:17:07;23.50;92.30
13606;DHT22;6874;52.084;5.090;2022-09-12T17:19:32;23.40;92.30
13606;DHT22;6874;52.084;5.090;2022-09-12T17:21:58;23.40;92.30
13606;DHT22;6874;52.084;5.090;2022-09-12T17:24:24;23.40;92.30
13606;DHT22;6874;52.084;5.090;2022-09-12T17:26:50;23.30;92.20
13606;DHT22;6874;52.084;5.090;2022-09-12T17:29:16;23.30;92.20
13606;DHT22;6874;52.084;5.090;2022-09-12T17:31:43;23.30;92.20
13606;DHT22;6874;52.084;5.090;2022-09-12T17:34:09;23.20;92.20
13606;DHT22;6874;52.084;5.090;2022-09-12T17:36:38;23.20;92.20
13606;DHT22;6874;52.084;5.090;2022-09-12T17:39:04;23.20;92.20
13606;DHT22;6874;52.084;5.090;2022-09-12T17:41:30;23.10;92.20
13606;DHT22;6874;52.084;5.090;2022-09-12T17:43:57;23.10;92.20
13606;DHT22;6874;52.084;5.090;2022-09-12T17:46:31;23.00;92.20
13606;DHT22;6874;52.084;5.090;2022-09-12T17:48:59;23.00;92.10
13606;DHT22;6874;52.084;5.090;2022-09-12T17:51:26;22.90;92.10
13606;DHT22;6874;52.084;5.090;2022-09-12T17:54:02;22.90;92.10
13606;DHT22;6874;52.084;5.090;2022-09-12T17:56:36;22.90;92.10
13606;DHT22;6874;52.084;5.090;2022-09-12T17:59:03;22.80;92.10
13606;DHT22;6874;52.084;5.090;2022-09-12T18:01:29;22.80;92.10
13606;DHT22;6874;52.084;5.090;2022-09-12T18:04:13;22.70;92.10
13606;DHT22;6874;52.084;5.090;2022-09-12T18:06:40;22.70;92.10
13606;DHT22;6874;52.084;5.090;2022-09-12T18:09:12;22.70;92.00
13606;DHT22;6874;52.084;5.090;2022-09-12T18:11:38;22.60;92.00
13606;DHT22;6874;52.084;5.090;2022-09-12T18:14:03;22.60;92.00
13606;DHT22;6874;52.084;5.090;2022-09-12T18:16:29;22.50;91.90
13606;DHT22;6874;52.084;5.090;2022-09-12T18:18:57;22.50;91.90
13606;DHT22;6874;52.084;5.090;2022-09-12T18:21:26;22.40;91.90
13606;DHT22;6874;52.084;5.090;2022-09-12T18:23:51;22.40;91.90
13606;DHT22;6874;52.084;5.090;2022-09-12T18:26:17;22.40;91.90
13606;DHT22;6874;52.084;5.090;2022-09-12T18:28:43;22.30;91.90
13606;DHT22;6874;52.084;5.090;2022-09-12T18:31:13;22.20;91.80
13606;DHT22;6874;52.084;5.090;2022-09-12T18:33:40;22.20;91.70
13606;DHT22;6874;52.084;5.090;2022-09-12T18:36:06;22.20;91.70